createdAt,value
2017-02-27T00:00:43.672Z,1004.24
2017-02-27T00:01:56.725Z,1004.25
2017-02-27T00:03:09.770Z,1004.23
2017-02-27T00:04:22.834Z,1004.27
2017-02-27T00:05:35.534Z,1004.24
2017-02-27T00:06:48.608Z,1004.27
2017-02-27T00:08:01.288Z,1004.22
2017-02-27T00:09:13.598Z,1004.32
2017-02-27T00:10:26.665Z,1004.32
2017-02-27T00:11:39.356Z,1004.31
2017-02-27T00:12:52.414Z,1004.26
2017-02-27T00:14:05.479Z,1004.28
2017-02-27T00:15:17.750Z,1004.27
2017-02-27T00:16:30.822Z,1004.31
2017-02-27T00:17:43.519Z,1004.29
2017-02-27T00:18:56.614Z,1004.29
2017-02-27T00:20:09.714Z,1004.3
2017-02-27T00:21:22.647Z,1004.31
2017-02-27T00:22:35.743Z,1004.35
2017-02-27T00:23:48.799Z,1004.35
2017-02-27T00:25:01.914Z,1004.32
2017-02-27T00:26:14.985Z,1004.28
2017-02-27T00:27:28.034Z,1004.32
2017-02-27T00:28:41.120Z,1004.3
2017-02-27T00:29:54.247Z,1004.25
2017-02-27T00:31:07.310Z,1004.26
2017-02-27T00:32:20.382Z,1004.27
2017-02-27T00:33:33.428Z,1004.23
2017-02-27T00:34:46.509Z,1004.28
2017-02-27T00:35:59.606Z,1004.25
2017-02-27T00:37:12.694Z,1004.22
2017-02-27T00:38:25.797Z,1004.2
2017-02-27T00:39:38.542Z,1004.22
2017-02-27T00:40:51.635Z,1004.26
2017-02-27T00:42:04.707Z,1004.27
2017-02-27T00:43:17.652Z,1004.29
2017-02-27T00:44:30.726Z,1004.25
2017-02-27T00:45:43.378Z,1004.29
2017-02-27T00:46:56.465Z,1004.27
2017-02-27T00:48:09.531Z,1004.27
2017-02-27T00:49:22.588Z,1004.27
2017-02-27T00:50:35.655Z,1004.29
2017-02-27T00:51:48.717Z,1004.3
2017-02-27T00:53:01.845Z,1004.26
2017-02-27T00:54:14.542Z,1004.25
2017-02-27T00:55:27.642Z,1004.26
2017-02-27T00:56:40.688Z,1004.28
2017-02-27T00:57:53.807Z,1004.22
2017-02-27T00:59:06.551Z,1004.29
2017-02-27T01:00:19.672Z,1004.25
2017-02-27T01:01:32.767Z,1004.27
2017-02-27T01:02:45.853Z,1004.27
2017-02-27T01:03:58.917Z,1004.3
2017-02-27T01:05:12.248Z,1004.26
2017-02-27T01:06:25.345Z,1004.28
2017-02-27T01:07:37.628Z,1004.28
2017-02-27T01:08:50.331Z,1004.28
2017-02-27T01:10:02.654Z,1004.27
2017-02-27T01:11:15.332Z,1004.29
2017-02-27T01:12:28.385Z,1004.27
2017-02-27T01:13:41.477Z,1004.25
2017-02-27T01:14:54.615Z,1004.31
2017-02-27T01:16:07.301Z,1004.3
2017-02-27T01:17:20.365Z,1004.28
2017-02-27T01:18:33.010Z,1004.25
2017-02-27T01:19:45.682Z,1004.25
2017-02-27T01:20:58.733Z,1004.24
2017-02-27T01:22:11.425Z,1004.24
2017-02-27T01:23:24.487Z,1004.21
2017-02-27T01:24:37.536Z,1004.2
2017-02-27T01:25:50.199Z,1004.15
2017-02-27T01:27:02.733Z,1004.17
2017-02-27T01:28:15.853Z,1004.13
2017-02-27T01:29:28.995Z,1004.14
2017-02-27T01:30:41.690Z,1004.12
2017-02-27T01:31:54.757Z,1004.14
2017-02-27T01:33:07.462Z,1004.12
2017-02-27T01:34:20.533Z,1004.11
2017-02-27T01:53:52.362Z,1004.21
2017-02-27T01:55:05.515Z,1004.22
2017-02-27T01:56:18.560Z,1004.29
2017-02-27T01:57:31.668Z,1004.23
2017-02-27T01:58:44.404Z,1004.24
2017-02-27T01:59:56.738Z,1004.26
2017-02-27T02:01:09.812Z,1004.27
2017-02-27T02:02:22.484Z,1004.22
2017-02-27T02:03:35.550Z,1004.31
2017-02-27T02:04:48.503Z,1004.25
2017-02-27T02:06:00.800Z,1004.26
2017-02-27T02:07:13.070Z,1004.2
2017-02-27T02:08:25.744Z,1004.22
2017-02-27T02:09:38.877Z,1004.21
2017-02-27T02:10:51.926Z,1004.22
2017-02-27T02:12:04.986Z,1004.2
2017-02-27T02:13:17.695Z,1004.22
2017-02-27T02:14:30.796Z,1004.23
2017-02-27T02:15:43.895Z,1004.23
2017-02-27T02:16:56.956Z,1004.18
2017-02-27T02:18:10.016Z,1004.19
2017-02-27T02:19:23.128Z,1004.15
2017-02-27T02:20:36.205Z,1004.12
2017-02-27T02:21:49.293Z,1004.14
2017-02-27T02:23:01.992Z,1004.1
2017-02-27T02:24:15.041Z,1004.1
2017-02-27T02:25:28.131Z,1004.09
2017-02-27T02:26:41.245Z,1004.15
2017-02-27T02:27:53.558Z,1004.12
2017-02-27T02:29:06.665Z,1004.07
2017-02-27T02:30:19.766Z,1004.1
2017-02-27T02:31:32.460Z,1004.09
2017-02-27T02:32:45.156Z,1004.09
2017-02-27T02:33:58.233Z,1004.08
2017-02-27T02:35:11.277Z,1004.08
2017-02-27T02:36:23.987Z,1004.08
2017-02-27T02:37:37.059Z,1004.05
2017-02-27T02:38:50.154Z,1004.08
2017-02-27T02:40:03.278Z,1004.08
2017-02-27T02:41:15.610Z,1004.04
2017-02-27T02:42:28.955Z,1004.06
2017-02-27T02:43:42.049Z,1004.06
2017-02-27T02:44:54.765Z,1004.07
2017-02-27T02:46:07.839Z,1004.05
2017-02-27T02:47:20.537Z,1004.01
2017-02-27T02:48:33.606Z,1004.04
2017-02-27T02:49:46.730Z,1004.05
2017-02-27T02:50:59.841Z,1004.04
2017-02-27T02:52:12.515Z,1004.07
2017-02-27T02:53:25.216Z,1004.07
2017-02-27T02:54:38.258Z,1004.08
2017-02-27T02:55:51.320Z,1004.05
2017-02-27T02:57:04.026Z,1004.04
2017-02-27T02:58:16.766Z,1004.01
2017-02-27T02:59:29.866Z,1004.07
2017-02-27T03:00:42.937Z,1004.03
2017-02-27T03:01:55.638Z,1004
2017-02-27T03:03:07.959Z,1004.01
2017-02-27T03:04:20.696Z,1004.01
2017-02-27T03:05:33.424Z,1004.01
2017-02-27T03:06:46.120Z,1003.99
2017-02-27T03:07:58.794Z,1003.95
2017-02-27T03:09:11.859Z,1003.96
2017-02-27T03:10:24.946Z,1003.93
2017-02-27T03:11:37.600Z,1003.91
2017-02-27T03:12:50.692Z,1003.87
2017-02-27T03:14:03.746Z,1003.9
2017-02-27T03:15:16.414Z,1003.89
2017-02-27T03:16:28.739Z,1003.85
2017-02-27T03:17:41.850Z,1003.88
2017-02-27T03:18:54.900Z,1003.82
2017-02-27T03:20:07.577Z,1003.83
2017-02-27T03:21:20.246Z,1003.81
2017-02-27T03:22:33.321Z,1003.81
2017-02-27T03:23:46.408Z,1003.82
2017-02-27T03:24:59.487Z,1003.78
2017-02-27T03:26:12.552Z,1003.79
2017-02-27T03:27:25.242Z,1003.77
2017-02-27T03:28:38.337Z,1003.73
2017-02-27T03:29:51.029Z,1003.77
2017-02-27T03:31:03.716Z,1003.74
2017-02-27T03:32:16.800Z,1003.74
2017-02-27T03:33:29.132Z,1003.73
2017-02-27T03:34:42.199Z,1003.74
2017-02-27T03:35:54.845Z,1003.77
2017-02-27T03:37:07.966Z,1003.72
2017-02-27T03:38:21.129Z,1003.71
2017-02-27T03:39:33.829Z,1003.65
2017-02-27T03:40:46.130Z,1003.63
2017-02-27T03:41:58.798Z,1003.65
2017-02-27T03:43:11.518Z,1003.65
2017-02-27T03:44:24.584Z,1003.61
2017-02-27T03:45:37.730Z,1003.6
2017-02-27T03:46:50.780Z,1003.6
2017-02-27T03:48:03.484Z,1003.54
2017-02-27T03:49:16.563Z,1003.56
2017-02-27T03:50:28.494Z,1003.53
2017-02-27T03:51:41.188Z,1003.53
2017-02-27T03:52:54.279Z,1003.54
2017-02-27T03:54:07.359Z,1003.54
2017-02-27T03:55:20.425Z,1003.54
2017-02-27T03:56:33.117Z,1003.51
2017-02-27T03:57:46.210Z,1003.55
2017-02-27T03:58:58.918Z,1003.53
2017-02-27T04:00:11.980Z,1003.49
2017-02-27T04:01:25.081Z,1003.45
2017-02-27T04:02:38.147Z,1003.46
2017-02-27T04:03:50.822Z,1003.45
2017-02-27T04:05:04.149Z,1003.51
2017-02-27T04:06:17.222Z,1003.5
2017-02-27T04:07:30.303Z,1003.46
2017-02-27T04:08:43.386Z,1003.47
2017-02-27T04:09:56.093Z,1003.48
2017-02-27T04:11:08.777Z,1003.49
2017-02-27T04:12:21.909Z,1003.49
2017-02-27T04:13:34.592Z,1003.48
2017-02-27T04:14:47.630Z,1003.5
2017-02-27T04:16:00.310Z,1003.5
2017-02-27T04:17:13.361Z,1003.48
2017-02-27T04:18:26.052Z,1003.47
2017-02-27T04:19:39.143Z,1003.43
2017-02-27T04:20:52.061Z,1003.43
2017-02-27T04:22:05.131Z,1003.42
2017-02-27T04:23:18.252Z,1003.41
2017-02-27T04:24:30.973Z,1003.44
2017-02-27T04:25:44.094Z,1003.43
2017-02-27T04:26:57.194Z,1003.44
2017-02-27T04:28:09.868Z,1003.46
2017-02-27T04:29:22.536Z,1003.43
2017-02-27T04:30:35.188Z,1003.44
2017-02-27T04:31:47.920Z,1003.44
2017-02-27T04:33:01.016Z,1003.41
2017-02-27T04:34:14.073Z,1003.37
2017-02-27T04:35:26.743Z,1003.36
2017-02-27T04:36:39.828Z,1003.35
2017-02-27T04:37:52.906Z,1003.31
2017-02-27T04:39:05.645Z,1003.26
2017-02-27T04:40:18.726Z,1003.21
2017-02-27T04:41:31.774Z,1003.2
2017-02-27T04:42:44.483Z,1003.19
2017-02-27T04:43:56.789Z,1003.17
2017-02-27T04:45:09.511Z,1003.22
2017-02-27T04:46:22.609Z,1003.27
2017-02-27T04:47:35.327Z,1003.29
2017-02-27T04:48:48.021Z,1003.33
2017-02-27T04:50:00.741Z,1003.35
2017-02-27T04:51:13.407Z,1003.33
2017-02-27T04:52:26.457Z,1003.33
2017-02-27T04:53:39.130Z,1003.31
2017-02-27T04:54:51.846Z,1003.31
2017-02-27T04:56:04.920Z,1003.29
2017-02-27T04:57:17.623Z,1003.25
2017-02-27T04:58:30.341Z,1003.29
2017-02-27T04:59:43.407Z,1003.28
2017-02-27T05:00:56.078Z,1003.24
2017-02-27T05:02:09.132Z,1003.19
2017-02-27T05:03:21.402Z,1003.2
2017-02-27T05:04:34.094Z,1003.16
2017-02-27T05:05:47.165Z,1003.18
2017-02-27T05:06:59.112Z,1003.14
2017-02-27T05:08:12.210Z,1003.14
2017-02-27T05:09:24.903Z,1003.07
2017-02-27T05:10:38.013Z,1003.1
2017-02-27T05:11:51.086Z,1003.08
2017-02-27T05:13:04.140Z,1003.05
2017-02-27T05:14:16.811Z,1003.02
2017-02-27T05:15:29.860Z,1003.05
2017-02-27T05:16:42.944Z,1003.05
2017-02-27T05:17:55.295Z,1003.02
2017-02-27T05:19:08.369Z,1002.99
2017-02-27T05:20:21.411Z,1002.97
2017-02-27T05:21:34.434Z,1003
2017-02-27T05:22:47.108Z,1002.96
2017-02-27T05:24:00.158Z,1002.92
2017-02-27T05:25:12.838Z,1002.96
2017-02-27T05:26:25.919Z,1002.95
2017-02-27T05:27:38.990Z,1002.93
2017-02-27T05:28:51.675Z,1002.93
2017-02-27T05:30:04.745Z,1002.93
2017-02-27T05:31:17.824Z,1002.9
2017-02-27T05:32:30.499Z,1002.91
2017-02-27T05:33:43.162Z,1002.92
2017-02-27T05:34:55.063Z,1002.93
2017-02-27T05:36:07.710Z,1002.94
2017-02-27T05:37:20.781Z,1002.93
2017-02-27T05:38:33.095Z,1002.96
2017-02-27T05:39:46.152Z,1002.95
2017-02-27T05:40:58.858Z,1002.9
2017-02-27T05:42:11.539Z,1002.91
2017-02-27T05:43:24.236Z,1002.89
2017-02-27T05:44:36.958Z,1002.92
2017-02-27T05:45:50.053Z,1002.88
2017-02-27T05:47:02.696Z,1002.9
2017-02-27T05:48:15.734Z,1002.91
2017-02-27T05:49:28.415Z,1002.92
2017-02-27T05:50:41.436Z,1002.95
2017-02-27T05:51:54.508Z,1002.94
2017-02-27T05:53:07.450Z,1002.91
2017-02-27T05:54:20.523Z,1002.91
2017-02-27T05:55:32.798Z,1002.91
2017-02-27T05:56:45.880Z,1002.93
2017-02-27T05:57:58.559Z,1002.92
2017-02-27T05:59:11.636Z,1002.97
2017-02-27T06:00:24.325Z,1002.96
2017-02-27T06:01:36.989Z,1002.94
2017-02-27T06:02:50.084Z,1002.89
2017-02-27T06:04:03.395Z,1002.94
2017-02-27T06:05:16.090Z,1002.88
2017-02-27T06:06:29.179Z,1002.89
2017-02-27T06:07:42.255Z,1002.9
2017-02-27T06:08:55.313Z,1002.88
2017-02-27T06:10:08.039Z,1002.91
2017-02-27T06:11:20.713Z,1002.89
2017-02-27T06:12:33.789Z,1002.88
2017-02-27T06:13:46.461Z,1002.87
2017-02-27T06:14:59.174Z,1002.89
2017-02-27T06:16:12.281Z,1002.85
2017-02-27T06:17:25.342Z,1002.84
2017-02-27T06:18:38.406Z,1002.8
2017-02-27T06:19:51.480Z,1002.83
2017-02-27T06:21:04.581Z,1002.81
2017-02-27T06:22:17.694Z,1002.81
2017-02-27T06:23:30.778Z,1002.82
2017-02-27T06:24:43.849Z,1002.82
2017-02-27T06:25:56.560Z,1002.83
2017-02-27T06:27:09.240Z,1002.83
2017-02-27T06:28:21.931Z,1002.8
2017-02-27T06:29:33.860Z,1002.79
2017-02-27T06:30:46.977Z,1002.8
2017-02-27T06:31:59.662Z,1002.74
2017-02-27T06:33:12.744Z,1002.79
2017-02-27T06:34:25.440Z,1002.8
2017-02-27T06:35:38.527Z,1002.76
2017-02-27T06:36:51.598Z,1002.75
2017-02-27T06:38:04.691Z,1002.72
2017-02-27T06:39:17.371Z,1002.74
2017-02-27T06:40:30.041Z,1002.73
2017-02-27T06:41:42.741Z,1002.72
2017-02-27T06:42:55.810Z,1002.71
2017-02-27T06:44:08.834Z,1002.69
2017-02-27T06:45:21.141Z,1002.71
2017-02-27T06:46:33.813Z,1002.72
2017-02-27T06:47:46.862Z,1002.74
2017-02-27T06:48:59.954Z,1002.71
2017-02-27T06:50:13.023Z,1002.75
2017-02-27T06:51:25.724Z,1002.76
2017-02-27T06:52:38.450Z,1002.71
2017-02-27T06:53:51.498Z,1002.7
2017-02-27T06:55:04.545Z,1002.72
2017-02-27T06:56:17.687Z,1002.67
2017-02-27T06:57:30.735Z,1002.67
2017-02-27T06:58:43.788Z,1002.65
2017-02-27T06:59:56.850Z,1002.63
2017-02-27T07:01:09.917Z,1002.62
2017-02-27T07:02:22.609Z,1002.61
2017-02-27T07:03:35.655Z,1002.56
2017-02-27T07:04:48.739Z,1002.56
2017-02-27T07:06:01.804Z,1002.54
2017-02-27T07:07:14.871Z,1002.48
2017-02-27T07:08:27.946Z,1002.54
2017-02-27T07:09:41.051Z,1002.49
2017-02-27T07:10:54.141Z,1002.51
2017-02-27T07:12:07.205Z,1002.51
2017-02-27T07:13:20.255Z,1002.45
2017-02-27T07:14:33.305Z,1002.5
2017-02-27T07:15:46.373Z,1002.47
2017-02-27T07:16:59.422Z,1002.44
2017-02-27T07:18:12.546Z,1002.46
2017-02-27T07:19:25.640Z,1002.41
2017-02-27T07:20:38.726Z,1002.43
2017-02-27T07:21:51.793Z,1002.37
2017-02-27T07:23:04.855Z,1002.39
2017-02-27T07:24:17.492Z,1002.34
2017-02-27T07:25:30.441Z,1002.38
2017-02-27T07:26:43.110Z,1002.38
2017-02-27T07:27:56.180Z,1002.42
2017-02-27T07:29:09.319Z,1002.42
2017-02-27T07:30:21.997Z,1002.43
2017-02-27T07:31:35.061Z,1002.43
2017-02-27T07:32:48.118Z,1002.4
2017-02-27T07:34:00.789Z,1002.41
2017-02-27T07:35:13.840Z,1002.43
2017-02-27T07:36:26.918Z,1002.43
2017-02-27T07:37:39.974Z,1002.42
2017-02-27T07:38:53.051Z,1002.43
2017-02-27T07:40:06.161Z,1002.46
2017-02-27T07:41:19.203Z,1002.48
2017-02-27T07:42:32.281Z,1002.43
2017-02-27T07:43:45.344Z,1002.49
2017-02-27T07:44:58.404Z,1002.39
2017-02-27T07:46:11.122Z,1002.44
2017-02-27T07:47:24.209Z,1002.47
2017-02-27T07:48:36.917Z,1002.42
2017-02-27T07:49:49.965Z,1002.45
2017-02-27T07:51:02.677Z,1002.46
2017-02-27T07:52:15.804Z,1002.44
2017-02-27T07:53:28.845Z,1002.45
2017-02-27T07:54:41.956Z,1002.44
2017-02-27T07:55:54.257Z,1002.43
2017-02-27T07:57:07.303Z,1002.43
2017-02-27T07:58:20.359Z,1002.39
2017-02-27T07:59:33.470Z,1002.41
2017-02-27T08:00:46.176Z,1002.4
2017-02-27T08:01:58.520Z,1002.4
2017-02-27T08:03:11.167Z,1002.39
2017-02-27T08:04:24.256Z,1002.35
2017-02-27T08:05:37.306Z,1002.34
2017-02-27T08:06:49.978Z,1002.34
2017-02-27T08:08:03.088Z,1002.28
2017-02-27T08:09:16.187Z,1002.29
2017-02-27T08:10:28.886Z,1002.3
2017-02-27T08:11:41.960Z,1002.33
2017-02-27T08:12:55.022Z,1002.32
2017-02-27T08:14:08.145Z,1002.32
2017-02-27T08:15:21.320Z,1002.3
2017-02-27T08:16:34.370Z,1002.3
2017-02-27T08:17:47.437Z,1002.26
2017-02-27T08:19:00.528Z,1002.23
2017-02-27T08:20:13.621Z,1002.18
2017-02-27T08:21:26.656Z,1002.24
2017-02-27T08:22:39.747Z,1002.18
2017-02-27T08:23:52.797Z,1002.12
2017-02-27T08:25:05.880Z,1002.13
2017-02-27T08:26:18.925Z,1002.07
2017-02-27T08:27:31.199Z,1002.11
2017-02-27T08:28:43.903Z,1002.03
2017-02-27T08:29:56.981Z,1002.04
2017-02-27T08:31:10.041Z,1002.05
2017-02-27T08:32:22.737Z,1002.02
2017-02-27T08:33:35.403Z,1002.01
2017-02-27T08:34:48.533Z,1001.97
2017-02-27T08:36:01.680Z,1001.98
2017-02-27T08:37:14.723Z,1002
2017-02-27T08:38:27.772Z,1001.97
2017-02-27T08:39:40.841Z,1001.95
2017-02-27T08:40:53.879Z,1001.91
2017-02-27T08:42:06.936Z,1001.94
2017-02-27T08:43:19.618Z,1001.98
2017-02-27T08:44:32.721Z,1001.89
2017-02-27T08:45:45.373Z,1001.93
2017-02-27T08:46:58.495Z,1001.88
2017-02-27T08:48:11.676Z,1001.9
2017-02-27T08:49:24.354Z,1001.88
2017-02-27T08:50:37.029Z,1001.84
2017-02-27T08:51:50.122Z,1001.84
2017-02-27T08:53:03.188Z,1001.82
2017-02-27T08:54:16.263Z,1001.82
2017-02-27T08:55:29.408Z,1001.82
2017-02-27T08:56:42.455Z,1001.82
2017-02-27T08:57:55.126Z,1001.73
2017-02-27T08:59:08.190Z,1001.77
2017-02-27T09:00:21.275Z,1001.78
2017-02-27T09:01:33.988Z,1001.76
2017-02-27T09:02:46.676Z,1001.77
2017-02-27T09:03:59.737Z,1001.72
2017-02-27T09:05:12.075Z,1001.68
2017-02-27T09:06:25.127Z,1001.63
2017-02-27T09:07:37.420Z,1001.64
2017-02-27T09:08:50.489Z,1001.63
2017-02-27T09:10:03.564Z,1001.63
2017-02-27T09:11:15.861Z,1001.63
2017-02-27T09:12:28.925Z,1001.61
2017-02-27T09:13:41.597Z,1001.59
2017-02-27T09:14:54.697Z,1001.61
2017-02-27T09:16:07.434Z,1001.55
2017-02-27T09:17:20.142Z,1001.56
2017-02-27T09:18:32.876Z,1001.53
2017-02-27T09:19:45.934Z,1001.54
2017-02-27T09:20:59.044Z,1001.48
2017-02-27T09:22:12.126Z,1001.5
2017-02-27T09:23:25.185Z,1001.46
2017-02-27T09:24:38.289Z,1001.45
2017-02-27T09:25:51.337Z,1001.43
2017-02-27T09:27:04.523Z,1001.45
2017-02-27T09:28:17.250Z,1001.44
2017-02-27T09:29:29.939Z,1001.33
2017-02-27T09:30:42.614Z,1001.43
2017-02-27T09:31:55.712Z,1001.42
2017-02-27T09:33:08.808Z,1001.35
2017-02-27T09:34:21.885Z,1001.37
2017-02-27T09:35:34.594Z,1001.33
2017-02-27T09:36:47.668Z,1001.29
2017-02-27T09:38:00.818Z,1001.3
2017-02-27T09:39:13.478Z,1001.29
2017-02-27T09:40:26.556Z,1001.25
2017-02-27T09:41:39.630Z,1001.25
2017-02-27T09:42:52.700Z,1001.3
2017-02-27T09:44:05.772Z,1001.2
2017-02-27T09:45:18.471Z,1001.24
2017-02-27T09:46:31.556Z,1001.21
2017-02-27T09:47:44.661Z,1001.2
2017-02-27T09:48:57.773Z,1001.15
2017-02-27T09:50:10.873Z,1001.19
2017-02-27T09:51:23.962Z,1001.15
2017-02-27T09:52:36.657Z,1001.15
2017-02-27T09:53:49.761Z,1001.14
2017-02-27T09:55:02.836Z,1001.07
2017-02-27T09:56:15.895Z,1001.13
2017-02-27T09:57:28.973Z,1001.08
2017-02-27T09:58:42.026Z,1001.15
2017-02-27T09:59:55.115Z,1001.12
2017-02-27T10:01:07.811Z,1001.1
2017-02-27T10:02:20.915Z,1001.06
2017-02-27T10:03:33.632Z,1001.07
2017-02-27T10:04:45.923Z,1001.08
2017-02-27T10:05:59.003Z,1001.03
2017-02-27T10:07:11.671Z,1001.05
2017-02-27T10:08:24.740Z,1001.03
2017-02-27T10:09:37.799Z,1001.04
2017-02-27T10:10:50.905Z,1000.97
2017-02-27T10:12:04.000Z,1000.99
2017-02-27T10:13:16.368Z,1001.01
2017-02-27T10:14:29.070Z,1000.95
2017-02-27T10:15:42.165Z,1000.92
2017-02-27T10:16:55.254Z,1000.91
2017-02-27T10:18:08.358Z,1000.89
2017-02-27T10:19:21.742Z,1000.85
2017-02-27T10:20:34.820Z,1000.89
2017-02-27T10:21:47.891Z,1000.91
2017-02-27T10:23:00.933Z,1000.77
2017-02-27T10:24:13.611Z,1000.8
2017-02-27T10:25:26.705Z,1000.79
2017-02-27T10:26:39.405Z,1000.84
2017-02-27T10:27:52.475Z,1000.84
2017-02-27T10:29:05.572Z,1000.81
2017-02-27T10:30:18.283Z,1000.79
2017-02-27T10:31:31.063Z,1000.8
2017-02-27T10:32:43.729Z,1000.78
2017-02-27T10:33:56.804Z,1000.83
2017-02-27T10:35:09.502Z,1000.8
2017-02-27T10:36:22.162Z,1000.87
2017-02-27T10:37:34.865Z,1000.82
2017-02-27T10:38:47.179Z,1000.75
2017-02-27T10:40:00.251Z,1000.83
2017-02-27T10:41:13.304Z,1000.78
2017-02-27T10:42:26.417Z,1000.64
2017-02-27T10:43:39.487Z,1000.54
2017-02-27T10:44:52.541Z,1000.44
2017-02-27T10:46:05.262Z,1000.35
2017-02-27T10:47:17.976Z,1000.46
2017-02-27T10:48:31.025Z,1000.5
2017-02-27T10:49:44.089Z,1000.47
2017-02-27T10:50:57.172Z,1000.47
2017-02-27T10:52:10.255Z,1000.48
2017-02-27T10:53:22.939Z,1000.41
2017-02-27T10:54:36.026Z,1000.46
2017-02-27T10:55:49.097Z,1000.44
2017-02-27T10:57:02.204Z,1000.45
2017-02-27T10:58:15.293Z,1000.44
2017-02-27T10:59:28.409Z,1000.42
2017-02-27T11:00:41.526Z,1000.41
2017-02-27T11:01:54.232Z,1000.38
2017-02-27T11:03:06.905Z,1000.35
2017-02-27T11:04:19.992Z,1000.34
2017-02-27T11:05:32.693Z,1000.4
2017-02-27T11:06:45.759Z,1000.34
2017-02-27T11:07:58.480Z,1000.28
2017-02-27T11:09:11.155Z,1000.28
2017-02-27T11:10:23.856Z,1000.25
2017-02-27T11:11:36.968Z,1000.2
2017-02-27T11:12:50.039Z,1000.17
2017-02-27T11:14:03.133Z,1000.19
2017-02-27T11:15:15.841Z,1000.19
2017-02-27T11:16:28.963Z,1000.18
2017-02-27T11:17:42.055Z,1000.17
2017-02-27T11:18:55.154Z,1000.19
2017-02-27T11:20:08.239Z,1000.19
2017-02-27T11:21:21.343Z,1000.2
2017-02-27T11:22:34.415Z,1000.19
2017-02-27T11:23:47.134Z,1000.16
2017-02-27T11:25:00.259Z,1000.13
2017-02-27T11:26:12.969Z,1000.12
2017-02-27T11:27:26.119Z,1000.1
2017-02-27T11:28:39.190Z,1000.03
2017-02-27T11:29:52.306Z,999.92
2017-02-27T11:31:05.357Z,999.93
2017-02-27T11:32:18.423Z,999.97
2017-02-27T11:33:31.526Z,999.97
2017-02-27T11:34:44.611Z,999.97
2017-02-27T11:35:57.714Z,999.95
2017-02-27T11:37:10.807Z,999.98
2017-02-27T11:38:23.532Z,999.95
2017-02-27T11:39:36.620Z,999.84
2017-02-27T11:40:49.669Z,999.8
2017-02-27T11:42:02.789Z,999.84
2017-02-27T11:43:15.493Z,999.89
2017-02-27T11:44:28.603Z,999.79
2017-02-27T11:45:41.677Z,999.77
2017-02-27T11:46:54.756Z,999.72
2017-02-27T11:48:07.831Z,999.69
2017-02-27T11:49:20.520Z,999.74
2017-02-27T11:50:33.191Z,999.66
2017-02-27T11:51:46.282Z,999.65
2017-02-27T11:52:59.352Z,999.64
2017-02-27T11:54:12.432Z,999.58
2017-02-27T11:55:25.147Z,999.55
2017-02-27T11:56:37.100Z,999.55
2017-02-27T11:57:50.194Z,999.56
2017-02-27T11:59:03.254Z,999.55
2017-02-27T12:00:16.300Z,999.53
2017-02-27T12:01:29.370Z,999.53
2017-02-27T12:02:42.470Z,999.54
2017-02-27T12:03:55.566Z,999.52
2017-02-27T12:05:08.644Z,999.44
2017-02-27T12:06:21.712Z,999.41
2017-02-27T12:07:34.432Z,999.42
2017-02-27T12:08:47.506Z,999.33
2017-02-27T12:10:00.576Z,999.36
2017-02-27T12:11:13.318Z,999.3
2017-02-27T12:12:26.419Z,999.27
2017-02-27T12:13:39.494Z,999.24
2017-02-27T12:14:52.557Z,999.22
2017-02-27T12:16:05.646Z,999.21
2017-02-27T12:17:18.703Z,999.17
2017-02-27T12:18:31.773Z,999.11
2017-02-27T12:19:45.137Z,999.09
2017-02-27T12:20:58.211Z,999.06
2017-02-27T12:22:10.904Z,998.99
2017-02-27T12:23:24.033Z,998.99
2017-02-27T12:24:37.104Z,999.03
2017-02-27T12:25:49.416Z,998.95
2017-02-27T12:27:02.495Z,998.98
2017-02-27T12:28:15.582Z,998.93
2017-02-27T12:29:28.678Z,998.98
2017-02-27T12:30:41.771Z,998.85
2017-02-27T12:31:54.821Z,998.87
2017-02-27T12:33:07.171Z,998.84
2017-02-27T12:34:19.833Z,998.81
2017-02-27T12:35:32.937Z,998.82
2017-02-27T12:36:45.636Z,998.83
2017-02-27T12:37:58.721Z,998.78
2017-02-27T12:39:11.446Z,998.75
2017-02-27T12:40:24.487Z,998.7
2017-02-27T12:41:37.167Z,998.7
2017-02-27T12:42:50.241Z,998.65
2017-02-27T12:44:03.326Z,998.66
2017-02-27T12:45:15.996Z,998.62
2017-02-27T12:46:28.695Z,998.67
2017-02-27T12:47:41.000Z,998.54
2017-02-27T12:48:54.099Z,998.54
2017-02-27T12:50:06.790Z,998.57
2017-02-27T12:51:19.479Z,998.55
2017-02-27T12:52:32.180Z,998.48
2017-02-27T12:53:44.876Z,998.51
2017-02-27T12:54:57.917Z,998.54
2017-02-27T12:56:10.994Z,998.45
2017-02-27T12:57:24.041Z,998.5
2017-02-27T12:58:36.786Z,998.47
2017-02-27T12:59:49.091Z,998.51
2017-02-27T13:01:02.177Z,998.44
2017-02-27T13:02:15.239Z,998.45
2017-02-27T13:03:28.321Z,998.42
2017-02-27T13:04:41.066Z,998.39
2017-02-27T13:05:53.761Z,998.32
2017-02-27T13:07:06.450Z,998.31
2017-02-27T13:08:19.576Z,998.3
2017-02-27T13:09:32.318Z,998.27
2017-02-27T13:10:45.365Z,998.2
2017-02-27T13:11:58.463Z,998.2
2017-02-27T13:13:11.166Z,998.2
2017-02-27T13:14:24.263Z,998.19
2017-02-27T13:15:37.343Z,998.07
2017-02-27T13:16:50.425Z,998.1
2017-02-27T13:18:03.469Z,998.04
2017-02-27T13:19:16.145Z,998.01
2017-02-27T13:20:29.185Z,998.01
2017-02-27T13:21:42.331Z,997.9
2017-02-27T13:22:55.428Z,997.84
2017-02-27T13:24:08.501Z,997.78
2017-02-27T13:25:21.568Z,997.77
2017-02-27T13:26:34.639Z,997.7
2017-02-27T13:27:47.331Z,997.72
2017-02-27T13:29:00.405Z,997.66
2017-02-27T13:30:13.522Z,997.63
2017-02-27T13:31:26.650Z,997.53
2017-02-27T13:32:39.321Z,997.51
2017-02-27T13:33:52.389Z,997.39
2017-02-27T13:35:05.456Z,997.4
2017-02-27T13:36:18.548Z,997.29
2017-02-27T13:37:31.627Z,997.3
2017-02-27T13:38:44.694Z,997.31
2017-02-27T13:39:57.772Z,997.26
2017-02-27T13:41:10.041Z,997.22
2017-02-27T13:42:23.160Z,997.18
2017-02-27T13:43:36.235Z,997.22
2017-02-27T13:44:48.919Z,997.21
2017-02-27T13:46:01.250Z,997.21
2017-02-27T13:47:13.944Z,997.17
2017-02-27T13:48:26.261Z,997.14
2017-02-27T13:49:38.559Z,997.11
2017-02-27T13:50:51.249Z,997.12
2017-02-27T13:52:04.332Z,997.08
2017-02-27T13:53:17.429Z,997.04
2017-02-27T13:54:30.499Z,997.03
2017-02-27T13:55:43.611Z,997.02
2017-02-27T13:56:56.686Z,996.93
2017-02-27T13:58:09.748Z,996.88
2017-02-27T13:59:22.406Z,996.84
2017-02-27T14:00:35.491Z,996.73
2017-02-27T14:01:48.540Z,996.71
2017-02-27T14:03:01.611Z,996.69
2017-02-27T14:04:14.678Z,996.6
2017-02-27T14:05:27.778Z,996.56
2017-02-27T14:06:40.878Z,996.47
2017-02-27T14:07:53.577Z,996.44
2017-02-27T14:09:06.670Z,996.39
2017-02-27T14:10:19.733Z,996.32
2017-02-27T14:11:32.439Z,996.39
2017-02-27T14:12:45.131Z,996.4
2017-02-27T14:13:57.432Z,996.55
2017-02-27T14:15:10.495Z,996.5
2017-02-27T14:16:23.565Z,996.47
2017-02-27T14:17:36.634Z,996.43
2017-02-27T14:18:49.714Z,996.43
2017-02-27T14:20:02.806Z,996.38
2017-02-27T14:21:15.899Z,996.4
2017-02-27T14:22:29.024Z,996.36
2017-02-27T14:23:42.066Z,996.33
2017-02-27T14:24:55.162Z,996.31
2017-02-27T14:26:07.895Z,996.33
2017-02-27T14:27:20.982Z,996.28
2017-02-27T14:28:34.059Z,996.25
2017-02-27T14:29:47.167Z,996.21
2017-02-27T14:30:59.848Z,996.19
2017-02-27T14:32:12.947Z,996.07
2017-02-27T14:33:26.015Z,996.05
2017-02-27T14:34:38.699Z,995.98
2017-02-27T14:35:51.382Z,995.96
2017-02-27T14:37:04.452Z,995.94
2017-02-27T14:38:17.541Z,995.98
2017-02-27T14:39:30.642Z,995.98
2017-02-27T14:40:43.364Z,996.01
2017-02-27T14:41:56.413Z,996.01
2017-02-27T14:43:09.507Z,995.98
2017-02-27T14:44:22.216Z,995.98
2017-02-27T14:45:34.888Z,995.95
2017-02-27T14:46:47.951Z,995.95
2017-02-27T14:48:00.641Z,995.95
2017-02-27T14:49:13.734Z,995.99
2017-02-27T14:50:26.853Z,995.97
2017-02-27T14:51:39.942Z,995.94
2017-02-27T14:52:53.013Z,995.88
2017-02-27T14:54:06.095Z,995.83
2017-02-27T14:55:19.212Z,995.87
2017-02-27T14:56:32.261Z,995.77
2017-02-27T14:57:44.835Z,995.74
2017-02-27T14:58:57.968Z,995.71
2017-02-27T15:00:11.038Z,995.61
2017-02-27T15:01:24.145Z,995.56
2017-02-27T15:02:37.264Z,995.47
2017-02-27T15:03:49.983Z,995.47
2017-02-27T15:05:02.700Z,995.42
2017-02-27T15:06:15.781Z,995.45
2017-02-27T15:07:28.871Z,995.3
2017-02-27T15:08:41.944Z,995.32
2017-02-27T15:09:55.080Z,995.28